Prestwick, United Kingdom
Current Conditions -  °F | °C
As of 5:20 PM on Thursday 18 Dec 2014 (Local Time) from EGPK Reporting Station
Broken Clouds Broken Clouds  
Wind Chill: 40°   Ceiling: 2000
Heat Index: 46°   Visibility: 6mi
Dew Point: 45°   Wind: 16mph
Humidity: 93%   Direction: 260°W
Pressure: 29.47"   Gusts: NA
Location:  55.48°N, 4.62°W
Report Text: EGPK 181720Z 26014KT 9999 SCT010 BKN020 08/07 Q0998
Loading
Personal Weather Stations






























Interactive Weather Map New forecast layout! Learn more

10-Day Weather Forecast

Advertisements
Track Severe Weather on mobile